createdAt,value
2023-02-24T00:01:52.873Z,1.67
2023-02-24T00:04:21.006Z,2.63
2023-02-24T00:06:48.499Z,2.63
2023-02-24T00:09:26.398Z,3.83
2023-02-24T00:11:59.490Z,2.13
2023-02-24T00:14:29.566Z,3.40
2023-02-24T00:16:58.784Z,2.97
2023-02-24T00:19:29.240Z,1.73
2023-02-24T00:21:56.207Z,1.70
2023-02-24T00:24:23.618Z,3.97
2023-02-24T00:26:55.102Z,5.10
2023-02-24T00:29:24.271Z,3.00
2023-02-24T00:32:06.903Z,3.97
2023-02-24T00:34:36.475Z,4.23
2023-02-24T00:37:07.017Z,3.93
2023-02-24T00:39:35.542Z,3.00
2023-02-24T00:42:05.912Z,6.37
2023-02-24T00:44:39.146Z,2.33
2023-02-24T00:47:08.148Z,3.13
2023-02-24T00:49:42.743Z,2.80
2023-02-24T00:52:15.078Z,1.90
2023-02-24T00:54:45.170Z,2.97
2023-02-24T00:57:13.069Z,3.20
2023-02-24T00:59:40.347Z,5.27
2023-02-24T01:02:11.815Z,4.03
2023-02-24T01:04:41.074Z,4.07
2023-02-24T01:07:11.008Z,3.40
2023-02-24T01:09:41.579Z,3.13
2023-02-24T01:12:19.538Z,5.60
2023-02-24T01:14:48.545Z,3.83
2023-02-24T01:17:18.362Z,3.63
2023-02-24T01:19:49.221Z,2.90
2023-02-24T01:22:18.621Z,1.33
2023-02-24T01:24:47.244Z,3.73
2023-02-24T01:27:17.801Z,6.23
2023-02-24T01:29:46.427Z,2.23
2023-02-24T01:32:19.941Z,2.57
2023-02-24T01:34:52.469Z,3.47
2023-02-24T01:37:21.224Z,2.63
2023-02-24T01:39:49.000Z,2.63
2023-02-24T01:42:22.142Z,3.60
2023-02-24T01:44:52.924Z,4.07
2023-02-24T01:47:21.493Z,3.07
2023-02-24T01:49:52.785Z,2.30
2023-02-24T01:52:26.728Z,2.13
2023-02-24T01:55:02.991Z,2.80
2023-02-24T01:57:33.512Z,2.27
2023-02-24T02:00:12.476Z,4.93
2023-02-24T02:02:46.538Z,2.77
2023-02-24T02:05:17.212Z,3.17
2023-02-24T02:07:45.675Z,3.43
2023-02-24T02:10:14.866Z,2.47
2023-02-24T02:12:44.680Z,4.90
2023-02-24T02:15:15.518Z,3.60
2023-02-24T02:18:12.549Z,3.20
2023-02-24T02:21:02.650Z,3.20
2023-02-24T02:24:01.170Z,3.37
2023-02-24T02:27:04.701Z,1.60
2023-02-24T02:29:41.555Z,1.93
2023-02-24T02:32:53.295Z,2.47
2023-02-24T02:35:37.197Z,3.10
2023-02-24T02:38:15.308Z,1.83
2023-02-24T02:41:07.336Z,3.60
2023-02-24T02:44:13.035Z,4.67
2023-02-24T02:46:48.070Z,2.50
2023-02-24T02:49:55.714Z,3.30
2023-02-24T02:52:34.748Z,2.17
2023-02-24T02:55:10.479Z,3.73
2023-02-24T02:57:40.292Z,5.13
2023-02-24T03:00:23.379Z,3.90
2023-02-24T03:02:58.235Z,2.37
2023-02-24T03:05:29.876Z,6.83
2023-02-24T03:07:59.238Z,2.90
2023-02-24T03:10:29.089Z,5.07
2023-02-24T03:13:00.552Z,3.57
2023-02-24T03:15:32.874Z,2.27
2023-02-24T03:18:12.179Z,3.97
2023-02-24T03:20:44.379Z,2.50
2023-02-24T03:23:16.898Z,3.67
2023-02-24T03:25:54.868Z,2.87
2023-02-24T03:28:32.373Z,5.33
2023-02-24T03:31:11.104Z,3.43
2023-02-24T03:33:45.095Z,2.17
2023-02-24T03:36:15.045Z,3.33
2023-02-24T03:38:42.990Z,3.80
2023-02-24T03:41:13.539Z,2.63
2023-02-24T03:43:46.849Z,4.10
2023-02-24T03:46:17.025Z,4.23
2023-02-24T03:49:02.985Z,5.40
2023-02-24T03:51:31.769Z,3.90
2023-02-24T03:54:31.110Z,4.27
2023-02-24T03:57:54.855Z,3.60
2023-02-24T04:00:54.165Z,4.60
2023-02-24T04:03:44.495Z,4.23
2023-02-24T04:06:58.104Z,3.17
2023-02-24T04:09:40.670Z,4.83
2023-02-24T04:12:18.954Z,5.17
2023-02-24T04:14:51.199Z,6.23
2023-02-24T04:17:21.150Z,2.23
2023-02-24T04:19:55.944Z,4.50
2023-02-24T04:22:26.886Z,3.70
2023-02-24T04:25:00.509Z,5.20
2023-02-24T04:27:28.948Z,5.43
2023-02-24T04:30:05.924Z,5.27
2023-02-24T04:32:34.013Z,6.57
2023-02-24T04:35:05.345Z,6.07
2023-02-24T04:37:38.679Z,3.63
2023-02-24T04:40:10.893Z,4.23
2023-02-24T04:42:46.690Z,4.00
2023-02-24T04:45:19.083Z,4.97
2023-02-24T04:47:49.547Z,6.17
2023-02-24T04:50:23.201Z,3.30
2023-02-24T04:53:02.006Z,3.00
2023-02-24T04:55:33.364Z,3.97
2023-02-24T04:58:02.233Z,5.10
2023-02-24T05:00:36.125Z,4.67
2023-02-24T05:03:05.508Z,3.43
2023-02-24T05:05:33.676Z,5.30
2023-02-24T05:08:04.862Z,4.57
2023-02-24T05:10:38.217Z,4.80
2023-02-24T05:13:06.991Z,5.37
2023-02-24T05:15:33.939Z,3.97
2023-02-24T05:18:24.389Z,4.60
2023-02-24T05:21:15.717Z,4.70
2023-02-24T05:23:47.045Z,5.43
2023-02-24T05:26:17.819Z,11.13
2023-02-24T05:28:49.433Z,7.90
2023-02-24T05:31:20.145Z,6.30
2023-02-24T05:33:51.284Z,7.23
2023-02-24T05:36:19.426Z,6.27
2023-02-24T05:38:56.722Z,3.40
2023-02-24T05:41:32.632Z,5.83
2023-02-24T05:44:02.568Z,8.20
2023-02-24T05:46:32.771Z,4.90
2023-02-24T05:49:02.502Z,7.73
2023-02-24T05:51:36.050Z,5.33
2023-02-24T05:54:08.147Z,5.10
2023-02-24T05:56:38.783Z,5.87
2023-02-24T05:59:09.071Z,10.10
2023-02-24T06:01:37.824Z,6.50
2023-02-24T06:04:08.100Z,8.47
2023-02-24T06:06:37.222Z,12.70
2023-02-24T06:09:11.082Z,5.10
2023-02-24T06:11:40.742Z,7.80
2023-02-24T06:14:10.113Z,5.10
2023-02-24T06:16:40.098Z,6.60
2023-02-24T06:19:09.513Z,7.83
2023-02-24T06:21:41.377Z,7.27
2023-02-24T06:24:15.487Z,5.17
2023-02-24T06:26:46.002Z,4.80
2023-02-24T06:29:15.005Z,5.23
2023-02-24T06:31:45.350Z,5.20
2023-02-24T06:34:18.546Z,7.07
2023-02-24T06:36:47.091Z,7.03
2023-02-24T06:39:14.696Z,9.90
2023-02-24T06:41:42.796Z,9.23
2023-02-24T06:44:09.769Z,7.53
2023-02-24T06:46:37.340Z,8.70
2023-02-24T06:49:04.416Z,6.87
2023-02-24T06:51:32.021Z,5.30
2023-02-24T06:53:59.728Z,10.17
2023-02-24T06:56:27.897Z,6.40
2023-02-24T06:58:56.928Z,7.07
2023-02-24T07:01:28.112Z,7.17
2023-02-24T07:04:17.643Z,5.63
2023-02-24T07:06:49.485Z,10.23
2023-02-24T07:09:18.883Z,12.37
2023-02-24T07:11:52.031Z,7.63
2023-02-24T07:14:21.828Z,7.50
2023-02-24T07:16:54.349Z,6.87
2023-02-24T07:19:25.037Z,9.27
2023-02-24T07:22:03.748Z,8.33
2023-02-24T07:24:36.753Z,7.37
2023-02-24T07:27:07.832Z,6.93
2023-02-24T07:29:37.835Z,8.83
2023-02-24T07:32:08.971Z,5.90
2023-02-24T07:34:40.388Z,8.03
2023-02-24T07:37:09.504Z,7.00
2023-02-24T07:39:39.168Z,8.00
2023-02-24T07:42:08.365Z,7.60
2023-02-24T07:44:45.296Z,5.43
2023-02-24T07:47:12.247Z,6.30
2023-02-24T07:49:40.954Z,8.63
2023-02-24T07:52:08.565Z,6.93
2023-02-24T07:54:35.983Z,4.40
2023-02-24T07:57:03.267Z,5.23
2023-02-24T07:59:32.709Z,6.37
2023-02-24T08:02:00.672Z,5.80
2023-02-24T08:04:30.430Z,5.20
2023-02-24T08:07:02.954Z,5.40
2023-02-24T08:09:46.575Z,6.10
2023-02-24T08:12:22.243Z,3.67
2023-02-24T08:14:53.895Z,5.00
2023-02-24T08:17:23.324Z,3.10
2023-02-24T08:20:12.235Z,4.53
2023-02-24T08:22:44.061Z,5.60
2023-02-24T08:25:18.594Z,4.57
2023-02-24T08:28:07.441Z,4.33
2023-02-24T08:30:39.850Z,4.37
2023-02-24T08:33:10.287Z,4.03
2023-02-24T08:35:44.809Z,3.17
2023-02-24T08:38:16.691Z,3.53
2023-02-24T08:40:55.073Z,3.43
2023-02-24T08:43:29.598Z,5.57
2023-02-24T08:46:18.634Z,3.70
2023-02-24T08:48:49.767Z,3.43
2023-02-24T08:51:29.099Z,4.07
2023-02-24T08:53:59.297Z,4.20
2023-02-24T08:56:34.895Z,4.57
2023-02-24T08:59:06.023Z,5.83
2023-02-24T09:01:37.148Z,6.87
2023-02-24T09:04:19.257Z,6.13
2023-02-24T09:06:47.885Z,8.57
2023-02-24T09:09:23.769Z,11.63
2023-02-24T09:11:56.571Z,7.87
2023-02-24T09:14:29.613Z,8.10
2023-02-24T09:17:11.712Z,6.57
2023-02-24T09:19:47.730Z,8.13
2023-02-24T09:22:31.463Z,5.33
2023-02-24T09:25:18.330Z,7.23
2023-02-24T09:28:09.221Z,5.43
2023-02-24T09:30:52.672Z,6.47
2023-02-24T09:33:38.844Z,5.03
2023-02-24T09:36:13.027Z,5.90
2023-02-24T09:39:01.722Z,6.97
2023-02-24T09:42:02.517Z,10.87
2023-02-24T09:44:55.750Z,8.23
2023-02-24T09:47:40.134Z,8.87
2023-02-24T09:50:55.146Z,12.60
2023-02-24T09:53:17.823Z,13.43
2023-02-24T09:56:04.771Z,11.93
2023-02-24T09:59:10.503Z,9.67
2023-02-24T10:01:55.292Z,11.43
2023-02-24T10:04:36.164Z,12.30
2023-02-24T10:07:11.418Z,13.73
2023-02-24T10:10:18.643Z,8.27
2023-02-24T10:13:17.208Z,10.63
2023-02-24T10:15:59.503Z,10.53
2023-02-24T10:18:33.622Z,12.63
2023-02-24T10:21:09.544Z,14.07
2023-02-24T10:23:47.183Z,10.00
2023-02-24T10:26:32.226Z,16.27
2023-02-24T10:29:08.976Z,10.77
2023-02-24T10:31:48.218Z,10.30
2023-02-24T10:34:26.439Z,11.23
2023-02-24T10:36:57.040Z,11.77
2023-02-24T10:39:25.912Z,15.03
2023-02-24T10:42:15.859Z,13.57
2023-02-24T10:45:02.213Z,14.47
2023-02-24T10:47:31.546Z,11.93
2023-02-24T10:50:03.968Z,9.20
2023-02-24T10:52:59.386Z,13.00
2023-02-24T10:55:43.790Z,10.37
2023-02-24T10:58:28.969Z,15.80
2023-02-24T11:01:07.370Z,15.50
2023-02-24T11:03:42.337Z,10.50
2023-02-24T11:06:41.192Z,14.37
2023-02-24T11:09:32.088Z,13.53
2023-02-24T11:12:43.690Z,15.00
2023-02-24T11:15:38.409Z,11.33
2023-02-24T11:18:07.055Z,10.07
2023-02-24T11:20:49.300Z,12.03
2023-02-24T11:23:22.259Z,11.77
2023-02-24T11:25:53.589Z,10.27
2023-02-24T11:28:40.071Z,14.17
2023-02-24T11:31:23.564Z,10.83
2023-02-24T11:34:09.515Z,10.17
2023-02-24T11:37:16.684Z,10.83
2023-02-24T11:39:59.385Z,9.53
2023-02-24T11:42:37.165Z,7.80
2023-02-24T11:45:30.632Z,8.03
2023-02-24T11:48:15.226Z,4.77
2023-02-24T11:50:47.427Z,3.30
2023-02-24T11:53:47.023Z,8.43
2023-02-24T11:56:21.706Z,5.33
2023-02-24T11:58:52.865Z,8.37
2023-02-24T12:01:42.232Z,8.80
2023-02-24T12:04:54.581Z,5.33
2023-02-24T12:07:44.348Z,6.67
2023-02-24T12:10:28.334Z,8.60
2023-02-24T12:13:07.696Z,8.53
2023-02-24T12:15:56.308Z,9.37
2023-02-24T12:18:34.124Z,11.50
2023-02-24T12:21:07.699Z,12.67
2023-02-24T12:23:35.926Z,10.00
2023-02-24T12:26:24.696Z,9.93
2023-02-24T12:29:21.714Z,12.97
2023-02-24T12:31:53.531Z,8.87
2023-02-24T12:34:46.256Z,10.50
2023-02-24T12:37:21.891Z,4.30
2023-02-24T12:39:58.500Z,6.07
2023-02-24T12:42:43.403Z,4.23
2023-02-24T12:45:32.756Z,2.50
2023-02-24T12:48:19.312Z,4.53
2023-02-24T12:51:10.354Z,3.23
2023-02-24T12:53:41.501Z,1.93
2023-02-24T12:56:25.227Z,3.60
2023-02-24T12:58:59.942Z,3.57
2023-02-24T13:01:41.537Z,5.53
2023-02-24T13:04:34.064Z,6.00
2023-02-24T13:07:10.175Z,5.70
2023-02-24T13:10:05.120Z,3.73
2023-02-24T13:12:55.059Z,4.40
2023-02-24T13:15:27.598Z,5.33
2023-02-24T13:17:57.984Z,8.23
2023-02-24T13:20:28.259Z,7.20
2023-02-24T13:22:56.429Z,5.17
2023-02-24T13:25:30.639Z,4.27
2023-02-24T13:28:02.433Z,5.20
2023-02-24T13:30:37.127Z,3.93
2023-02-24T13:33:06.294Z,8.57
2023-02-24T13:35:36.109Z,9.57
2023-02-24T13:38:29.438Z,5.10
2023-02-24T13:41:25.089Z,3.53
2023-02-24T13:44:23.371Z,6.47
2023-02-24T13:47:09.004Z,5.47
2023-02-24T13:49:55.190Z,5.17
2023-02-24T13:52:41.297Z,3.80
2023-02-24T13:55:12.231Z,6.33
2023-02-24T13:57:57.094Z,6.37
2023-02-24T14:00:55.917Z,4.47
2023-02-24T14:03:26.885Z,0.60
2023-02-24T14:05:54.506Z,2.00
2023-02-24T14:08:41.518Z,2.90
2023-02-24T14:11:13.201Z,1.60
2023-02-24T14:13:40.824Z,2.17
2023-02-24T14:16:11.850Z,4.90
2023-02-24T14:18:40.920Z,3.93
2023-02-24T14:21:22.414Z,3.20
2023-02-24T14:24:02.550Z,5.40
2023-02-24T14:26:36.611Z,5.10
2023-02-24T14:29:07.193Z,4.23
2023-02-24T14:31:34.410Z,5.47
2023-02-24T14:34:08.683Z,6.57
2023-02-24T14:36:43.855Z,9.60
2023-02-24T14:39:25.581Z,4.00
2023-02-24T14:42:14.398Z,5.60
2023-02-24T14:44:59.470Z,3.77
2023-02-24T14:47:28.930Z,4.87
2023-02-24T14:50:04.310Z,5.87
2023-02-24T14:52:39.848Z,3.73
2023-02-24T14:55:26.091Z,3.27
2023-02-24T14:58:03.783Z,6.27
2023-02-24T15:00:35.400Z,5.40
2023-02-24T15:03:02.604Z,6.10
2023-02-24T15:05:29.714Z,7.77
2023-02-24T15:07:58.635Z,7.83
2023-02-24T15:10:28.905Z,13.77
2023-02-24T15:13:02.124Z,11.27
2023-02-24T15:15:35.014Z,10.27
2023-02-24T15:18:12.692Z,9.30
2023-02-24T15:20:41.306Z,3.63
2023-02-24T15:23:28.086Z,5.43
2023-02-24T15:25:55.278Z,7.47
2023-02-24T15:28:36.145Z,5.50
2023-02-24T15:31:17.926Z,5.33
2023-02-24T15:33:54.616Z,3.27
2023-02-24T15:36:25.653Z,7.07
2023-02-24T15:39:00.814Z,5.67
2023-02-24T15:41:45.582Z,8.30
2023-02-24T15:44:26.855Z,6.47
2023-02-24T15:46:55.191Z,7.60
2023-02-24T15:49:22.052Z,11.47
2023-02-24T15:51:52.909Z,9.30
2023-02-24T15:54:36.224Z,7.70
2023-02-24T15:57:05.546Z,7.37
2023-02-24T15:59:32.647Z,8.60
2023-02-24T16:01:59.629Z,5.87
2023-02-24T16:04:27.665Z,9.50
2023-02-24T16:06:57.144Z,9.67
2023-02-24T16:09:36.790Z,7.90
2023-02-24T16:12:16.575Z,9.63
2023-02-24T16:14:45.259Z,4.40
2023-02-24T16:17:38.974Z,4.43
2023-02-24T16:20:13.941Z,5.50
2023-02-24T16:22:42.496Z,7.27
2023-02-24T16:25:14.382Z,6.33
2023-02-24T16:27:41.747Z,7.57
2023-02-24T16:30:16.647Z,8.03
2023-02-24T16:32:46.757Z,7.63
2023-02-24T16:35:14.068Z,5.97
2023-02-24T16:37:40.982Z,6.17
2023-02-24T16:40:20.486Z,8.10
2023-02-24T16:42:49.280Z,12.33
2023-02-24T16:45:18.568Z,13.17
2023-02-24T16:47:48.164Z,17.83
2023-02-24T16:50:22.885Z,15.50
2023-02-24T16:52:50.341Z,6.40
2023-02-24T16:55:17.916Z,14.77
2023-02-24T16:57:44.793Z,9.43
2023-02-24T17:00:14.523Z,10.90
2023-02-24T17:02:44.126Z,9.90
2023-02-24T17:05:20.599Z,12.97
2023-02-24T17:07:53.822Z,11.03
2023-02-24T17:10:22.478Z,11.97
2023-02-24T17:12:49.525Z,14.17
2023-02-24T17:15:20.677Z,10.43
2023-02-24T17:17:47.887Z,9.13
2023-02-24T17:20:18.395Z,10.67
2023-02-24T17:22:46.546Z,11.23
2023-02-24T17:25:26.172Z,11.23
2023-02-24T17:27:54.647Z,6.33
2023-02-24T17:30:28.350Z,9.23
2023-02-24T17:32:56.036Z,7.27
2023-02-24T17:35:24.991Z,5.20
2023-02-24T17:37:52.719Z,6.40
2023-02-24T17:40:20.229Z,7.70
2023-02-24T17:42:47.546Z,7.63
2023-02-24T17:45:15.109Z,10.17
2023-02-24T17:47:45.282Z,13.23
2023-02-24T17:50:14.129Z,9.27
2023-02-24T17:52:41.610Z,7.80
2023-02-24T17:55:09.420Z,10.57
2023-02-24T17:57:37.071Z,7.70
2023-02-24T18:00:05.577Z,3.73
2023-02-24T18:02:39.350Z,7.60
2023-02-24T18:05:06.952Z,12.53
2023-02-24T18:07:33.929Z,12.33
2023-02-24T18:10:02.623Z,12.70
2023-02-24T18:12:29.710Z,11.27
2023-02-24T18:15:07.799Z,8.77
2023-02-24T18:17:36.189Z,10.53
2023-02-24T18:20:04.057Z,14.27
2023-02-24T18:22:30.953Z,7.17
2023-02-24T18:24:59.341Z,8.87
2023-02-24T18:27:26.557Z,13.00
2023-02-24T18:29:54.385Z,8.70
2023-02-24T18:32:21.629Z,8.90
2023-02-24T18:34:48.995Z,12.50
2023-02-24T18:37:15.891Z,11.03
2023-02-24T18:39:42.896Z,10.73
2023-02-24T18:42:10.207Z,12.40
2023-02-24T18:44:37.133Z,5.27
2023-02-24T18:47:09.534Z,7.10
2023-02-24T18:49:37.375Z,6.10
2023-02-24T18:52:05.435Z,4.37
2023-02-24T18:54:33.873Z,5.73
2023-02-24T18:57:01.140Z,7.97
2023-02-24T18:59:28.146Z,5.70
2023-02-24T19:01:57.048Z,3.83
2023-02-24T19:04:24.855Z,6.90
2023-02-24T19:06:51.944Z,8.73
2023-02-24T19:09:22.850Z,7.57
2023-02-24T19:11:50.367Z,2.30
2023-02-24T19:14:17.836Z,3.73
2023-02-24T19:16:47.756Z,6.87
2023-02-24T19:19:16.462Z,7.80
2023-02-24T19:21:48.446Z,8.83
2023-02-24T19:24:16.713Z,2.87
2023-02-24T19:26:45.915Z,4.90
2023-02-24T19:29:15.190Z,5.37
2023-02-24T19:31:43.815Z,5.23
2023-02-24T19:34:12.950Z,9.10
2023-02-24T19:36:41.255Z,5.57
2023-02-24T19:39:14.363Z,4.10
2023-02-24T19:41:42.349Z,4.27
2023-02-24T19:44:10.474Z,5.83
2023-02-24T19:46:37.846Z,4.47
2023-02-24T19:49:05.141Z,7.27
2023-02-24T19:51:32.718Z,5.20
2023-02-24T19:54:03.221Z,5.13
2023-02-24T19:56:32.691Z,6.37
2023-02-24T19:59:01.371Z,5.40
2023-02-24T20:01:30.082Z,11.27
2023-02-24T20:04:00.439Z,6.97
2023-02-24T20:06:31.468Z,8.67
2023-02-24T20:09:00.517Z,10.57
2023-02-24T20:11:33.064Z,6.43
2023-02-24T20:13:59.942Z,6.20
2023-02-24T20:16:32.016Z,8.73
2023-02-24T20:19:00.152Z,11.60
2023-02-24T20:21:28.178Z,9.77
2023-02-24T20:24:00.641Z,11.93
2023-02-24T20:26:28.846Z,12.57
2023-02-24T20:28:56.946Z,9.40
2023-02-24T20:31:24.440Z,9.93
2023-02-24T20:33:52.340Z,11.40
2023-02-24T20:36:22.793Z,8.23
2023-02-24T20:38:50.732Z,9.47
2023-02-24T20:41:19.210Z,10.10
2023-02-24T20:43:46.139Z,8.40
2023-02-24T20:46:24.418Z,9.13
2023-02-24T20:48:53.235Z,6.40
2023-02-24T20:51:20.450Z,8.33
2023-02-24T20:53:57.358Z,6.63
2023-02-24T20:56:26.654Z,10.73
2023-02-24T20:59:01.954Z,8.47
2023-02-24T21:01:30.755Z,3.87
2023-02-24T21:03:59.965Z,5.03
2023-02-24T21:06:29.140Z,7.63
2023-02-24T21:08:56.924Z,7.57
2023-02-24T21:11:24.451Z,10.33
2023-02-24T21:13:52.487Z,8.03
2023-02-24T21:16:22.422Z,7.90
2023-02-24T21:18:53.186Z,7.63
2023-02-24T21:21:21.354Z,4.87
2023-02-24T21:23:51.209Z,8.57
2023-02-24T21:26:19.924Z,9.30
2023-02-24T21:28:46.989Z,8.37
2023-02-24T21:31:17.247Z,4.80
2023-02-24T21:33:44.808Z,8.87
2023-02-24T21:36:14.517Z,7.77
2023-02-24T21:38:41.972Z,4.90
2023-02-24T21:41:14.729Z,5.13
2023-02-24T21:43:44.421Z,3.70
2023-02-24T21:46:13.331Z,4.40
2023-02-24T21:48:40.824Z,5.00
2023-02-24T21:51:10.589Z,4.23
2023-02-24T21:53:39.407Z,7.07
2023-02-24T21:56:16.764Z,6.37
2023-02-24T21:58:53.631Z,7.53
2023-02-24T22:01:24.117Z,7.73
2023-02-24T22:03:57.314Z,8.53
2023-02-24T22:06:26.295Z,8.50
2023-02-24T22:08:55.118Z,7.43
2023-02-24T22:11:22.091Z,5.90
2023-02-24T22:13:49.824Z,3.93
2023-02-24T22:16:20.160Z,9.83
2023-02-24T22:18:49.077Z,9.13
2023-02-24T22:21:19.293Z,7.00
2023-02-24T22:23:48.186Z,6.67
2023-02-24T22:26:16.920Z,6.13
2023-02-24T22:28:46.766Z,5.20
2023-02-24T22:31:18.005Z,4.33
2023-02-24T22:33:46.459Z,6.93
2023-02-24T22:36:19.283Z,7.83
2023-02-24T22:38:46.902Z,9.70
2023-02-24T22:41:22.459Z,8.03
2023-02-24T22:43:49.809Z,8.17
2023-02-24T22:46:21.346Z,8.03
2023-02-24T22:48:50.530Z,11.03
2023-02-24T22:51:19.135Z,11.80
2023-02-24T22:53:48.980Z,10.20
2023-02-24T22:56:19.574Z,12.47
2023-02-24T22:58:46.676Z,9.83
2023-02-24T23:01:27.626Z,7.93
2023-02-24T23:03:56.260Z,8.83
2023-02-24T23:06:26.237Z,7.47
2023-02-24T23:08:54.283Z,10.83
2023-02-24T23:11:27.863Z,8.70
2023-02-24T23:13:56.348Z,5.70
2023-02-24T23:16:27.431Z,6.13
2023-02-24T23:18:56.280Z,8.00
2023-02-24T23:21:33.992Z,5.80
2023-02-24T23:24:01.119Z,7.63
2023-02-24T23:26:29.589Z,6.10
2023-02-24T23:28:57.558Z,8.17
2023-02-24T23:31:24.556Z,9.83
2023-02-24T23:33:55.603Z,7.17
2023-02-24T23:36:23.641Z,10.37
2023-02-24T23:38:51.844Z,6.43
2023-02-24T23:41:18.914Z,6.60
2023-02-24T23:43:46.102Z,9.33
2023-02-24T23:46:13.709Z,10.53
2023-02-24T23:48:40.874Z,6.73
2023-02-24T23:51:14.025Z,7.40
2023-02-24T23:53:43.547Z,8.57
2023-02-24T23:56:18.992Z,7.10
2023-02-24T23:58:50.545Z,10.23
